createdAt,value
2023-04-13T00:01:08.723Z,5.65
2023-04-13T00:06:04.239Z,5.70
2023-04-13T00:10:54.687Z,5.69
2023-04-13T00:15:48.251Z,5.67
2023-04-13T00:20:43.996Z,5.62
2023-04-13T00:25:37.394Z,5.61
2023-04-13T00:30:34.226Z,5.68
2023-04-13T00:35:28.287Z,5.71
2023-04-13T00:40:34.099Z,5.58
2023-04-13T00:45:28.482Z,5.61
2023-04-13T00:50:25.498Z,5.58
2023-04-13T00:55:23.522Z,5.73
2023-04-13T01:00:21.451Z,5.59
2023-04-13T01:05:19.206Z,5.70
2023-04-13T01:10:17.647Z,5.76
2023-04-13T01:15:27.648Z,5.69
2023-04-13T01:20:25.412Z,5.86
2023-04-13T01:25:26.469Z,5.84
2023-04-13T01:30:28.370Z,5.84
2023-04-13T01:35:23.122Z,5.64
2023-04-13T01:40:28.440Z,5.62
2023-04-13T01:45:29.385Z,5.58
2023-04-13T01:50:31.237Z,5.46
2023-04-13T01:55:33.803Z,5.44
2023-04-13T02:00:39.626Z,5.38
2023-04-13T02:05:41.993Z,5.35
2023-04-13T02:10:40.982Z,5.24
2023-04-13T02:15:35.881Z,5.24
2023-04-13T02:20:26.503Z,5.22
2023-04-13T02:25:19.494Z,5.29
2023-04-13T02:30:15.916Z,5.34
2023-04-13T02:35:10.477Z,5.36
2023-04-13T02:40:02.564Z,5.34
2023-04-13T02:44:56.315Z,5.41
2023-04-13T02:49:48.204Z,5.36
2023-04-13T02:54:54.777Z,5.33
2023-04-13T02:59:53.151Z,5.28
2023-04-13T03:04:53.520Z,5.39
2023-04-13T03:09:47.071Z,5.39
2023-04-13T03:14:41.488Z,5.40
2023-04-13T03:19:36.533Z,5.39
2023-04-13T03:24:35.924Z,5.47
2023-04-13T03:29:32.130Z,5.44
2023-04-13T03:34:25.189Z,5.36
2023-04-13T03:39:17.241Z,5.56
2023-04-13T03:44:12.224Z,5.48
2023-04-13T03:49:09.511Z,5.39
2023-04-13T03:54:01.742Z,5.43
2023-04-13T03:58:53.315Z,5.60
2023-04-13T04:03:56.730Z,5.59
2023-04-13T04:08:51.559Z,5.55
2023-04-13T04:13:56.145Z,5.44
2023-04-13T04:18:48.176Z,5.65
2023-04-13T04:23:47.624Z,5.74
2023-04-13T04:28:41.983Z,5.80
2023-04-13T04:33:39.090Z,5.81
2023-04-13T04:38:33.553Z,5.83
2023-04-13T04:43:46.796Z,5.81
2023-04-13T04:48:46.133Z,5.72
2023-04-13T04:53:45.019Z,5.73
2023-04-13T04:58:40.955Z,5.58
2023-04-13T05:03:49.106Z,5.61
2023-04-13T05:08:53.452Z,5.50
2023-04-13T05:13:56.947Z,5.53
2023-04-13T05:18:59.833Z,5.50
2023-04-13T05:24:26.212Z,5.34
2023-04-13T05:29:18.003Z,5.31
2023-04-13T05:34:13.252Z,5.22
2023-04-13T05:39:12.458Z,5.32
2023-04-13T05:44:03.421Z,5.33
2023-04-13T05:48:58.552Z,5.45
2023-04-13T05:53:53.529Z,5.46
2023-04-13T05:58:45.230Z,5.61
2023-04-13T06:03:44.411Z,5.69
2023-04-13T06:08:35.840Z,5.79
2023-04-13T06:13:28.063Z,5.88
2023-04-13T06:18:18.656Z,5.85
2023-04-13T06:23:12.303Z,5.96
2023-04-13T06:28:10.059Z,5.73
2023-04-13T06:33:12.688Z,5.84
2023-04-13T06:38:08.614Z,6.04
2023-04-13T06:43:22.644Z,6.05
2023-04-13T06:48:44.578Z,6.22
2023-04-13T06:53:36.589Z,6.22
2023-04-13T06:58:31.865Z,6.45
2023-04-13T07:03:27.121Z,6.44
2023-04-13T07:08:21.848Z,6.62
2023-04-13T07:13:21.106Z,6.95
2023-04-13T07:18:12.003Z,7.09
2023-04-13T07:23:03.065Z,7.16
2023-04-13T07:28:00.826Z,7.08
2023-04-13T07:32:54.448Z,7.28
2023-04-13T07:37:47.749Z,7.24
2023-04-13T07:42:48.799Z,7.49
2023-04-13T07:47:46.432Z,7.45
2023-04-13T07:52:43.136Z,7.46
2023-04-13T07:57:34.321Z,7.67
2023-04-13T08:02:32.313Z,7.87
2023-04-13T08:07:28.033Z,7.88
2023-04-13T08:12:21.681Z,7.78
2023-04-13T08:17:14.645Z,7.60
2023-04-13T08:22:07.855Z,7.51
2023-04-13T08:27:04.257Z,7.51
2023-04-13T08:31:54.820Z,7.51
2023-04-13T08:36:47.415Z,7.63
2023-04-13T08:41:44.323Z,7.64
2023-04-13T08:46:42.856Z,7.90
2023-04-13T08:51:42.602Z,8.12
2023-04-13T08:56:45.493Z,8.27
2023-04-13T09:01:57.018Z,8.32
2023-04-13T09:06:55.359Z,8.31
2023-04-13T09:11:51.548Z,8.52
2023-04-13T09:16:44.284Z,8.48
2023-04-13T09:21:46.731Z,8.55
2023-04-13T09:26:46.983Z,8.64
2023-04-13T09:31:39.152Z,8.52
2023-04-13T09:36:33.312Z,8.54
2023-04-13T09:41:48.380Z,8.63
2023-04-13T09:46:45.289Z,8.46
2023-04-13T09:51:46.032Z,8.25
2023-04-13T09:56:54.054Z,8.32
2023-04-13T10:01:46.928Z,8.32
2023-04-13T10:06:46.187Z,8.20
2023-04-13T10:11:42.774Z,8.27
2023-04-13T10:17:06.347Z,8.43
2023-04-13T10:22:02.632Z,8.59
2023-04-13T10:26:59.136Z,8.51
2023-04-13T10:32:00.730Z,8.88
2023-04-13T10:37:15.829Z,8.85
2023-04-13T10:42:18.076Z,8.64
2023-04-13T10:47:09.724Z,8.67
2023-04-13T10:52:02.887Z,8.76
2023-04-13T10:57:07.107Z,9.03
2023-04-13T11:01:58.365Z,8.98
2023-04-13T11:06:51.906Z,8.90
2023-04-13T11:11:56.898Z,8.98
2023-04-13T11:16:58.484Z,9.10
2023-04-13T11:22:00.265Z,9.13
2023-04-13T11:27:00.919Z,9.03
2023-04-13T11:31:55.915Z,9.23
2023-04-13T11:36:54.353Z,9.42
2023-04-13T11:41:47.757Z,9.61
2023-04-13T11:46:41.852Z,9.48
2023-04-13T11:51:38.526Z,9.36
2023-04-13T11:56:29.236Z,9.57
2023-04-13T12:01:26.178Z,9.76
2023-04-13T12:06:22.296Z,10.22
2023-04-13T12:11:40.500Z,10.36
2023-04-13T12:17:01.687Z,10.39
2023-04-13T12:22:12.118Z,10.29
2023-04-13T12:32:12.241Z,10.50
2023-04-13T12:37:05.487Z,10.65
2023-04-13T12:41:57.174Z,10.77
2023-04-13T12:46:53.370Z,10.96
2023-04-13T12:51:47.851Z,11.01
2023-04-13T12:56:46.208Z,10.69
2023-04-13T13:01:39.458Z,10.80
2023-04-13T13:06:36.845Z,11.28
2023-04-13T13:11:29.832Z,11.51
2023-04-13T13:16:23.636Z,11.70
2023-04-13T13:21:17.524Z,12.03
2023-04-13T13:31:08.999Z,11.86
2023-04-13T13:36:04.863Z,11.51
2023-04-13T13:40:58.077Z,11.11
2023-04-13T13:45:51.926Z,10.95
2023-04-13T13:50:46.847Z,10.64
2023-04-13T13:55:48.754Z,10.51
2023-04-13T14:00:43.252Z,10.66
2023-04-13T14:05:35.781Z,10.66
2023-04-13T14:10:31.372Z,10.61
2023-04-13T14:15:25.237Z,10.98
2023-04-13T14:20:16.688Z,11.16
2023-04-13T14:25:12.607Z,11.12
2023-04-13T14:30:12.192Z,11.36
2023-04-13T14:35:06.663Z,11.28
2023-04-13T14:40:00.248Z,11.07
2023-04-13T14:44:55.806Z,10.81
2023-04-13T14:49:53.941Z,10.74
2023-04-13T14:54:51.173Z,10.99
2023-04-13T14:59:48.240Z,11.25
2023-04-13T15:04:43.621Z,11.34
2023-04-13T15:09:42.920Z,11.32
2023-04-13T15:14:36.568Z,11.45
2023-04-13T15:19:40.534Z,11.54
2023-04-13T15:24:32.169Z,11.47
2023-04-13T15:29:25.785Z,11.61
2023-04-13T15:34:21.930Z,11.70
2023-04-13T15:39:12.803Z,11.78
2023-04-13T15:44:06.193Z,11.81
2023-04-13T15:48:56.865Z,11.78
2023-04-13T15:53:56.637Z,11.76
2023-04-13T15:58:48.028Z,11.71
2023-04-13T16:03:45.400Z,11.65
2023-04-13T16:08:41.178Z,11.62
2023-04-13T16:18:36.542Z,11.47
2023-04-13T16:23:32.048Z,11.57
2023-04-13T16:28:31.080Z,11.59
2023-04-13T16:33:33.413Z,11.46
2023-04-13T16:38:26.069Z,11.43
2023-04-13T16:43:17.862Z,11.45
2023-04-13T16:48:18.281Z,11.55
2023-04-13T16:53:13.013Z,11.50
2023-04-13T16:58:06.478Z,11.42
2023-04-13T17:02:59.453Z,11.30
2023-04-13T17:07:54.694Z,11.13
2023-04-13T17:12:53.867Z,11.04
2023-04-13T17:17:45.300Z,11.13
2023-04-13T17:22:39.872Z,11.02
2023-04-13T17:27:32.353Z,11.02
2023-04-13T17:32:28.443Z,10.89
2023-04-13T17:37:24.687Z,10.70
2023-04-13T17:42:33.418Z,10.31
2023-04-13T17:47:30.437Z,9.88
2023-04-13T17:52:23.632Z,9.64
2023-04-13T17:57:22.128Z,9.41
2023-04-13T18:02:14.898Z,9.37
2023-04-13T18:07:10.719Z,9.27
2023-04-13T18:12:05.357Z,9.17
2023-04-13T18:16:57.610Z,9.01
2023-04-13T18:21:49.348Z,8.89
2023-04-13T18:26:47.675Z,8.82
2023-04-13T18:31:42.663Z,9.12
2023-04-13T18:36:37.959Z,9.27
2023-04-13T18:41:29.425Z,8.97
2023-04-13T18:46:26.651Z,8.93
2023-04-13T18:51:16.675Z,8.93
2023-04-13T18:56:08.741Z,8.79
2023-04-13T19:00:58.851Z,8.72
2023-04-13T19:05:53.828Z,8.57
2023-04-13T19:10:45.459Z,8.58
2023-04-13T19:15:39.959Z,8.44
2023-04-13T19:20:30.457Z,8.47
2023-04-13T19:25:29.235Z,8.50
2023-04-13T19:30:24.254Z,8.44
2023-04-13T19:35:16.616Z,8.32
2023-04-13T19:40:14.127Z,8.24
2023-04-13T19:45:09.705Z,8.19
2023-04-13T19:50:00.375Z,8.15
2023-04-13T19:54:53.393Z,8.13
2023-04-13T19:59:44.638Z,8.05
2023-04-13T20:04:42.479Z,8.01
2023-04-13T20:09:37.508Z,7.82
2023-04-13T20:14:29.515Z,7.75
2023-04-13T20:19:21.657Z,7.60
2023-04-13T20:24:14.428Z,7.67
2023-04-13T20:29:05.713Z,7.63
2023-04-13T20:33:56.120Z,7.42
2023-04-13T20:38:47.036Z,7.44
2023-04-13T20:43:42.750Z,7.30
2023-04-13T20:53:41.529Z,7.06
2023-04-13T20:58:33.512Z,7.07
2023-04-13T21:03:32.358Z,7.00
2023-04-13T21:08:24.252Z,6.98
2023-04-13T21:13:22.924Z,6.92
2023-04-13T21:18:13.643Z,6.92
2023-04-13T21:23:07.228Z,7.00
2023-04-13T21:28:03.515Z,6.97
2023-04-13T21:32:54.547Z,6.91
2023-04-13T21:37:45.737Z,6.93
2023-04-13T21:42:45.449Z,6.87
2023-04-13T21:47:42.507Z,6.90
2023-04-13T21:52:33.221Z,6.94
2023-04-13T21:57:24.324Z,6.92
2023-04-13T22:02:24.655Z,6.97
2023-04-13T22:07:16.228Z,6.97
2023-04-13T22:12:06.929Z,6.94
2023-04-13T22:17:02.347Z,6.93
2023-04-13T22:21:57.268Z,6.89
2023-04-13T22:26:50.888Z,6.87
2023-04-13T22:31:43.869Z,6.83
2023-04-13T22:36:36.946Z,6.81
2023-04-13T22:41:33.446Z,6.76
2023-04-13T22:46:26.080Z,6.69
2023-04-13T22:51:17.009Z,6.63
2023-04-13T22:56:08.078Z,6.56
2023-04-13T23:01:04.238Z,6.48
2023-04-13T23:05:54.461Z,6.49
2023-04-13T23:10:44.258Z,6.44
2023-04-13T23:15:37.619Z,6.46
2023-04-13T23:20:35.526Z,6.44
2023-04-13T23:25:26.924Z,6.11
2023-04-13T23:30:21.340Z,6.04
2023-04-13T23:35:13.583Z,6.21
2023-04-13T23:40:08.093Z,6.09
2023-04-13T23:45:03.634Z,6.06
2023-04-13T23:50:09.237Z,6.06
2023-04-13T23:55:04.135Z,5.99
